Nice, France

21:39 CEST le 22 août 2014 (GMT +0200)
Nice-Cote d'Azur | Change Station
CLOSE
Current Station
Aéroport
Location: Nice,
Altitude: 10 ft
Stations météo à proximité

Alt. 10 ft 43.65 °N, 7.21 °E | Updated 9 minutes ago

Mostly Cloudy
Nuageux
75 ° F
Paraît 75 ° F
N
8
Vent Variable Vent de ENE

Aujourd'hui
Haut(e) -- | Bas -- ° F
--% Risque de précip.
Hier
Haut(e) -- | Bas -- ° F
Precip. -- pouce
6:43 AM 8:24 PM
Lune descendante, 7% visible
Pression 29.92 pouce
Visibilité 6.2 Miles terrestres
Nuages Peu 2600 ft
Nuages épars 14000 ft
Nuageux 20000 ft
Point de rosée 64 ° F
Humidité 69%
Précipitations 0.00 pouce
Profondeur de la couche neigeuse Non disponible.
UV 0 sur 12
Pollen Non disponible.
Qualité de l'air Non disponible.
Flu Activity Non disponible.
METAR LFMN 221930Z 06007KT 9999 FEW026 SCT140 BKN200 24/18 Q1013 NOSIG

More Conditions Fewer Conditions

Pression 29.92 pouce
Visibilité 6.2 Miles terrestres
Nuages Peu 2600 ft
Nuages épars 14000 ft
Nuageux 20000 ft
Point de rosée 64 ° F
Humidité 69%
Précipitations 0.00 pouce
Profondeur de la couche neigeuse Non disponible.
UV 0 sur 12
Pollen Non disponible.
Qualité de l'air Non disponible.
Flu Activity Non disponible.
METAR LFMN 221930Z 06007KT 9999 FEW026 SCT140 BKN200 24/18 Q1013 NOSIG

More Conditions Fewer Conditions

10-Day Weather Forecast

Almanac

Astronomie

Aug. 22, 2014 Lever Coucher
Temps réel 06:43 CEST 20:24 CEST
Crépuscule civil 06:12 CEST 20:54 CEST
Crépuscule nautique 05:35 CEST 21:31 CEST
Crépuscule astronomique 04:56 CEST 22:10 CEST
Lune 03:49 CEST 18:24 CEST
Durée de lumière visible 14h 41m
Longueur du jour
13h 40m
Tomorrow will be 2m 45s shorter.
Lune descendante, 7% of the Moon is Illuminated
Aujourd'hui
Lune descendante
août 25
Nouveau
Sep 2
Premier quartier
Sep 8
Pleine lune
Sep 15
Dernier quartier

Extrêmes aujourd'hui

Country Highs Country Lows

Community

WunderPhotos

Upload Photos

1,746,226 Photos téléchargées !

Nearby

Qualité de l'air

Not available.

Épaisseur de neige

Not available.

Activité sismique

Ville Distance Mag. Time & Date
No recent earthquake activity has been reported nearby.
Minimum magnitude displayed is 2.5.

Températures des eaux côtières

Lieu Température
Aucun rapport de station

Stations météo à proximité